Bei Facebook empfehlenBei Twitter postenGoogle plusPinterest

Das Wetter im Erzgebirge am 23.06.2016

Wetter und Klima am 23.06.2016 Holzhau im Erzgebirge (630m ü.NN)
Letzte gemessene Temperatur und Uhrzeit der Messung23:45:00 Uhr20.70 °C
Temperatur (Maximum / Höchstwert) und Uhrzeit der Messung17:15:00 Uhr28.80 °C
Temperatur (Minimum / Tiefstwert) und Uhrzeit der Messung04:45:0011.60 °C
Errechneter Absolutwert der Temperaturschwankungen zwischen Tmin und Tmax des Tages17.20 K
Errechnete Tagesmitteltemperatur21.54688 °C
Gesamt - Niederschlag des Tages (in flüssiger Form)0.00 Liter / m²
Luftdruck (Maximum / Höchstwert) und Zeitpunkt der Messung01:15:00 Uhr1022.60 hPa
Luftdruck (Minimum / Tiefstwert) und Zeitpunkt der Messung23:15:00 Uhr1018.20 hPa
Errechneter Absolutwert der Luftdruckschwankungen des Tages4.40 hPa
Höchste gemessene Windgeschwindigkeit und Uhrzeit der Messung23:45:00 Uhr0.00 km/h
Errechnete Windhäufigkeit in Relation zu den Messwerten des Tages0.00000 %
Niedrigste Windkühle (Windchill) und Zeitpunkt der Messung04:45:00 Uhr11.60 °C
Taupunkt (Maximum / Höchstwert) und Uhrzeit der Messung07:30:00 Uhr18.80 °C
Taupunkt (Minimum / Tiefstwert) und Uhrzeit der Messung04:45:0010.50 °C
Anzahl der automatisch eingelesenen Messwerte 96

Detaillierte Wetter- und Klima- Messwerte für den 23.06.2016 in Holzhau im Erzgebirge (630m ü.NN)
ZeitTemperaturLuftdruckRel. LuftfeuchteWindWindrichtungWindchillTaupunktNiederschlag l/m²
23:45:0020.70 °C1018.30 hPa73.00 %15.70 °C 
23:30:0020.80 °C1018.30 hPa73.00 %15.80 °C 
23:15:0020.70 °C1018.20 hPa73.00 %15.70 °C 
23:00:0020.90 °C1018.30 hPa73.00 %15.90 °C 
22:45:0021.00 °C1018.40 hPa73.00 %16.00 °C 
22:30:0021.00 °C1018.40 hPa74.00 %16.20 °C 
22:15:0021.10 °C1018.40 hPa74.00 %16.30 °C 
22:00:0021.30 °C1018.40 hPa73.00 %16.30 °C 
21:45:0021.50 °C1018.50 hPa72.00 %16.20 °C 
21:30:0021.90 °C1018.40 hPa72.00 %16.60 °C 
21:15:0022.20 °C1018.50 hPa70.00 %16.50 °C 
21:00:0022.80 °C1018.50 hPa68.00 %16.60 °C 
20:45:0023.70 °C1018.70 hPa66.00 %17.00 °C 
20:30:0024.30 °C1018.60 hPa64.00 %17.10 °C 
20:15:0024.90 °C1018.60 hPa62.00 %17.10 °C 
20:00:0025.80 °C1018.80 hPa61.00 %17.70 °C 
19:45:0026.40 °C1018.80 hPa59.00 %17.70 °C 
19:30:0026.90 °C1018.90 hPa58.00 %17.90 °C 
19:15:0027.20 °C1019.00 hPa58.00 %18.20 °C 
19:00:0027.50 °C1019.20 hPa56.00 %17.90 °C 
18:45:0027.90 °C1019.20 hPa55.00 %18.00 °C 
18:30:0028.40 °C1019.30 hPa54.00 %18.20 °C 
18:15:0028.40 °C1019.50 hPa55.00 %18.50 °C 
18:00:0028.20 °C1019.50 hPa54.00 %18.00 °C 
17:45:0028.30 °C1019.50 hPa54.00 %18.10 °C 
17:30:0028.40 °C1019.60 hPa54.00 %18.20 °C 
17:15:0028.80 °C1019.70 hPa54.00 %18.60 °C 
17:00:0028.60 °C1020.00 hPa54.00 %18.40 °C 
16:45:0028.60 °C1020.10 hPa53.00 %18.10 °C 
16:30:0028.60 °C1020.10 hPa53.00 %18.10 °C 
16:15:0028.60 °C1020.30 hPa53.00 %18.10 °C 
16:00:0028.30 °C1020.30 hPa53.00 %17.80 °C 
15:45:0028.10 °C1020.40 hPa52.00 %17.30 °C 
15:30:0028.10 °C1020.40 hPa52.00 %17.30 °C 
15:15:0028.30 °C1020.30 hPa53.00 %17.80 °C 
15:00:0028.10 °C1020.50 hPa51.00 %17.00 °C 
14:45:0028.10 °C1020.50 hPa52.00 %17.30 °C 
14:30:0027.90 °C1020.60 hPa53.00 %17.40 °C 
14:15:0027.80 °C1020.80 hPa53.00 %17.30 °C 
14:00:0027.80 °C1021.10 hPa53.00 %17.30 °C 
13:45:0027.50 °C1021.10 hPa53.00 %17.10 °C 
13:30:0027.30 °C1021.30 hPa55.00 %17.50 °C 
13:15:0026.90 °C1021.40 hPa56.00 %17.40 °C 
13:00:0026.60 °C1021.30 hPa56.00 %17.10 °C 
12:45:0026.80 °C1021.30 hPa57.00 %17.60 °C 
12:30:0026.50 °C1021.60 hPa56.00 %17.00 °C 
12:15:0026.60 °C1021.90 hPa58.00 %17.70 °C 
12:00:0026.40 °C1022.00 hPa57.00 %17.20 °C 
11:45:0026.20 °C1022.00 hPa57.00 %17.00 °C 
11:30:0025.60 °C1022.10 hPa57.00 %16.40 °C 
11:15:0025.50 °C1022.20 hPa58.00 %16.60 °C 
11:00:0025.40 °C1022.40 hPa58.00 %16.50 °C 
10:45:0025.10 °C1022.20 hPa60.00 %16.80 °C 
10:30:0024.60 °C1022.10 hPa61.00 %16.60 °C 
10:15:0024.50 °C1022.10 hPa63.00 %17.00 °C 
10:00:0024.10 °C1022.00 hPa65.00 %17.10 °C 
09:45:0023.90 °C1022.00 hPa66.00 %17.20 °C 
09:30:0023.40 °C1022.00 hPa67.00 %16.90 °C 
09:15:0023.30 °C1022.00 hPa67.00 %16.80 °C 
09:00:0023.40 °C1022.00 hPa66.00 %16.70 °C 
08:45:0023.90 °C1022.10 hPa68.00 %17.60 °C 
08:30:0023.80 °C1021.90 hPa68.00 %17.50 °C 
08:15:0023.60 °C1021.80 hPa71.00 %18.00 °C 
08:00:0023.10 °C1021.80 hPa76.00 %18.60 °C 
07:45:0021.90 °C1021.90 hPa81.00 %18.50 °C 
07:30:0020.90 °C1022.00 hPa88.00 %18.80 °C 
07:15:0018.80 °C1022.00 hPa93.00 %17.60 °C 
07:00:0015.40 °C1022.00 hPa94.00 %14.40 °C 
06:45:0014.60 °C1022.10 hPa94.00 %13.60 °C 
06:30:0013.80 °C1022.00 hPa94.00 %12.90 °C 
06:15:0013.20 °C1021.90 hPa94.00 %12.30 °C 
06:00:0012.80 °C1022.00 hPa94.00 %11.90 °C 
05:45:0012.40 °C1022.00 hPa94.00 %11.50 °C 
05:30:0012.20 °C1022.10 hPa94.00 %11.30 °C 
05:15:0012.10 °C1022.20 hPa94.00 %11.20 °C 
05:00:0011.80 °C1022.10 hPa93.00 %10.70 °C 
04:45:0011.60 °C1022.20 hPa93.00 %10.50 °C 
04:30:0011.80 °C1022.10 hPa93.00 %10.70 °C 
04:15:0011.90 °C1022.10 hPa93.00 %10.80 °C 
04:00:0012.00 °C1022.00 hPa93.00 %10.90 °C 
03:45:0011.80 °C1022.20 hPa93.00 %10.70 °C 
03:30:0011.80 °C1022.40 hPa92.00 %10.50 °C 
03:15:0011.80 °C1022.50 hPa92.00 %10.50 °C 
03:00:0012.10 °C1022.50 hPa92.00 %10.80 °C 
02:45:0012.40 °C1022.40 hPa92.00 %11.10 °C 
02:30:0012.60 °C1022.40 hPa92.00 %11.30 °C 
02:15:0012.80 °C1022.30 hPa92.00 %11.50 °C 
02:00:0013.10 °C1022.30 hPa92.00 %11.80 °C 
01:45:0013.20 °C1022.40 hPa91.00 %11.80 °C 
01:30:0013.40 °C1022.40 hPa91.00 %12.00 °C 
01:15:0013.60 °C1022.60 hPa91.00 %12.20 °C 
01:00:0013.80 °C1022.60 hPa91.00 %12.40 °C 
00:45:0014.00 °C1022.60 hPa91.00 %12.60 °C 
00:30:0014.20 °C1022.40 hPa90.00 %12.60 °C 
00:15:0014.40 °C1022.50 hPa90.00 %12.80 °C 
00:00:0014.40 °C1022.40 hPa89.00 %12.60 °C 

Permanenter Link zu dieser Seite: Wetter im Erzgebirge am 23.06.2016
Performance-Info: Die Erstellung der Seite / Statistik(en) / Tabelle(n) erforderte 5 Datenbankserver-Abfrage(n) und dauerte 122 Millisekunden. (Dieser Messwert ist von der Gesamt-Auslastung des Servers abhängig.)
Erzgebirge - Wetter | Erzgebirge - Wetter (Mobilgeräte) | Komplette Klimadatenbank